createdAt,value
2019-05-04T00:00:32.263Z,13.50
2019-05-04T00:01:07.669Z,17.40
2019-05-04T00:01:45.266Z,23.00
2019-05-04T00:02:18.522Z,27.00
2019-05-04T00:02:54.890Z,24.80
2019-05-04T00:03:29.282Z,18.50
2019-05-04T00:04:05.267Z,18.70
2019-05-04T00:04:40.037Z,18.60
2019-05-04T00:05:15.358Z,20.30
2019-05-04T00:05:50.861Z,22.80
2019-05-04T00:06:26.130Z,26.40
2019-05-04T00:07:01.434Z,20.80
2019-05-04T00:07:36.821Z,21.40
2019-05-04T00:08:12.240Z,21.70
2019-05-04T00:08:47.534Z,16.10
2019-05-04T00:09:25.259Z,25.40
2019-05-04T00:09:58.531Z,21.80
2019-05-04T00:10:34.515Z,12.60
2019-05-04T00:11:09.127Z,15.10
2019-05-04T00:11:45.584Z,18.10
2019-05-04T00:12:20.214Z,22.20
2019-05-04T00:12:55.520Z,21.00
2019-05-04T00:13:31.101Z,17.30
2019-05-04T00:14:06.337Z,11.80
2019-05-04T00:14:41.616Z,13.40
2019-05-04T00:15:17.031Z,19.90
2019-05-04T00:15:52.312Z,23.30
2019-05-04T00:16:27.923Z,22.00
2019-05-04T00:17:05.345Z,22.30
2019-05-04T00:17:38.608Z,26.60
2019-05-04T00:18:15.301Z,21.60
2019-05-04T00:18:49.390Z,15.40
2019-05-04T00:19:25.199Z,14.40
2019-05-04T00:20:00.606Z,16.00
2019-05-04T00:20:36.086Z,15.20
2019-05-04T00:21:11.887Z,16.60
2019-05-04T00:21:47.458Z,25.60
2019-05-04T00:22:24.405Z,24.60
2019-05-04T00:22:57.863Z,17.70
2019-05-04T00:23:35.118Z,21.80
2019-05-04T00:24:08.792Z,17.50
2019-05-04T00:24:45.345Z,19.00
2019-05-04T00:25:20.059Z,21.20
2019-05-04T00:25:55.952Z,18.60
2019-05-04T00:26:31.430Z,19.40
2019-05-04T00:27:06.573Z,25.00
2019-05-04T00:27:41.963Z,26.50
2019-05-04T00:28:17.394Z,27.50
2019-05-04T00:28:54.785Z,25.70
2019-05-04T00:29:27.711Z,23.70
2019-05-04T00:30:05.282Z,29.10
2019-05-04T00:30:38.629Z,26.60
2019-05-04T00:31:15.127Z,23.10
2019-05-04T00:31:49.314Z,24.60
2019-05-04T00:32:24.782Z,32.80
2019-05-04T00:33:00.189Z,28.70
2019-05-04T00:33:36.232Z,23.50
2019-05-04T00:34:10.821Z,20.10
2019-05-04T00:34:46.099Z,18.70
2019-05-04T00:35:21.401Z,27.50
2019-05-04T00:35:56.697Z,31.30
2019-05-04T00:36:32.019Z,28.70
2019-05-04T00:37:08.161Z,29.00
2019-05-04T00:37:42.984Z,25.50
2019-05-04T00:38:18.578Z,24.70
2019-05-04T00:38:54.283Z,36.10
2019-05-04T00:39:29.440Z,34.80
2019-05-04T00:40:05.262Z,28.00
2019-05-04T00:40:40.458Z,25.00
2019-05-04T00:41:15.994Z,22.90
2019-05-04T00:41:51.306Z,24.30
2019-05-04T00:42:26.649Z,29.10
2019-05-04T00:43:01.941Z,31.90
2019-05-04T00:43:37.434Z,33.30
2019-05-04T00:44:12.737Z,35.70
2019-05-04T00:44:48.051Z,32.20
2019-05-04T00:45:24.850Z,26.60
2019-05-04T00:45:58.445Z,20.80
2019-05-04T00:46:34.526Z,27.10
2019-05-04T00:47:09.339Z,31.80
2019-05-04T00:47:44.994Z,33.10
2019-05-04T00:48:20.060Z,26.10
2019-05-04T00:48:55.549Z,22.40
2019-05-04T00:49:31.203Z,28.60
2019-05-04T00:50:06.378Z,34.50
2019-05-04T00:50:41.818Z,37.60
2019-05-04T00:51:17.008Z,34.30
2019-05-04T00:51:52.219Z,38.30
2019-05-04T00:52:27.393Z,35.80
2019-05-04T00:53:05.190Z,27.30
2019-05-04T00:53:38.589Z,44.70
2019-05-04T00:54:14.777Z,43.70
2019-05-04T00:54:49.717Z,38.30
2019-05-04T00:55:25.201Z,38.50
2019-05-04T00:56:00.700Z,43.10
2019-05-04T00:56:36.136Z,34.60
2019-05-04T00:57:10.998Z,29.60
2019-05-04T00:57:46.309Z,37.90
2019-05-04T00:58:21.889Z,37.30
2019-05-04T00:58:57.419Z,39.80
2019-05-04T00:59:34.734Z,35.60
2019-05-04T01:00:08.051Z,35.40
2019-05-04T01:00:44.845Z,31.40
2019-05-04T01:01:18.635Z,31.00
2019-05-04T01:01:55.151Z,34.60
2019-05-04T01:02:29.513Z,30.40
2019-05-04T01:03:05.349Z,36.20
2019-05-04T01:03:40.422Z,27.00
2019-05-04T01:04:16.031Z,23.30
2019-05-04T01:04:51.348Z,32.80
2019-05-04T01:05:26.717Z,40.00
2019-05-04T01:06:02.031Z,34.10
2019-05-04T01:06:37.436Z,33.30
2019-05-04T01:07:19.825Z,32.10
2019-05-04T01:07:48.312Z,33.60
2019-05-04T01:08:25.017Z,28.50
2019-05-04T01:08:58.800Z,27.10
2019-05-04T01:09:36.089Z,27.50
2019-05-04T01:10:09.820Z,22.00
2019-05-04T01:10:45.229Z,20.80
2019-05-04T01:11:20.524Z,23.70
2019-05-04T01:11:56.058Z,26.00
2019-05-04T01:12:31.505Z,34.00
2019-05-04T01:13:06.507Z,28.00
2019-05-04T01:13:41.818Z,21.80
2019-05-04T01:14:17.361Z,22.70
2019-05-04T01:14:52.564Z,26.00
2019-05-04T01:15:28.100Z,28.00
2019-05-04T01:16:05.577Z,23.30
2019-05-04T01:16:38.504Z,19.20
2019-05-04T01:17:14.641Z,28.00
2019-05-04T01:17:49.310Z,24.60
2019-05-04T01:18:25.296Z,25.20
2019-05-04T01:19:00.817Z,25.40
2019-05-04T01:19:36.242Z,28.80
2019-05-04T01:20:11.768Z,25.80
2019-05-04T01:20:47.257Z,21.30
2019-05-04T01:21:22.669Z,28.60
2019-05-04T01:21:58.042Z,24.20
2019-05-04T01:22:34.413Z,16.20
2019-05-04T01:23:08.772Z,17.50
2019-05-04T01:23:44.775Z,26.30
2019-05-04T01:24:19.446Z,27.60
2019-05-04T01:24:55.227Z,25.00
2019-05-04T01:25:30.160Z,30.20
2019-05-04T01:26:07.724Z,22.60
2019-05-04T01:26:41.185Z,22.80
2019-05-04T01:27:16.414Z,28.30
2019-05-04T01:27:51.923Z,26.90
2019-05-04T01:28:27.618Z,24.70
2019-05-04T01:29:04.609Z,31.20
2019-05-04T01:29:38.975Z,24.90
2019-05-04T01:30:15.094Z,14.30
2019-05-04T01:30:49.759Z,31.80
2019-05-04T01:31:25.446Z,29.10
2019-05-04T01:32:00.231Z,24.30
2019-05-04T01:32:35.603Z,26.20
2019-05-04T01:33:10.908Z,21.40
2019-05-04T01:33:46.190Z,15.30
2019-05-04T01:34:21.625Z,14.00
2019-05-04T01:34:56.803Z,21.30
2019-05-04T01:35:32.109Z,23.40
2019-05-04T01:36:07.532Z,21.60
2019-05-04T01:36:42.842Z,20.30
2019-05-04T01:37:28.502Z,20.50
2019-05-04T01:37:53.639Z,22.70
2019-05-04T01:38:29.121Z,19.20
2019-05-04T01:39:04.502Z,19.00
2019-05-04T01:39:39.850Z,19.50
2019-05-04T01:40:15.371Z,23.40
2019-05-04T01:40:50.561Z,18.70
2019-05-04T01:41:25.988Z,14.70
2019-05-04T01:42:01.463Z,22.60
2019-05-04T01:42:36.781Z,24.90
2019-05-04T01:43:12.279Z,24.20
2019-05-04T01:43:47.607Z,22.70
2019-05-04T01:44:23.027Z,23.40
2019-05-04T01:44:58.449Z,18.90
2019-05-04T01:45:34.734Z,17.80
2019-05-04T01:46:09.147Z,22.70
2019-05-04T01:46:44.895Z,19.50
2019-05-04T01:47:19.728Z,20.00
2019-05-04T01:47:55.562Z,19.80
2019-05-04T01:48:30.342Z,21.60
2019-05-04T01:49:05.952Z,25.90
2019-05-04T01:49:41.068Z,24.80
2019-05-04T01:50:16.458Z,21.60
2019-05-04T01:50:51.675Z,19.10
2019-05-04T01:51:27.059Z,13.90
2019-05-04T01:52:04.671Z,12.70
2019-05-04T01:52:37.762Z,20.10
2019-05-04T01:53:14.793Z,23.90
2019-05-04T01:53:48.350Z,20.00
2019-05-04T01:54:24.949Z,18.50
2019-05-04T01:54:59.280Z,22.20
2019-05-04T01:55:34.933Z,28.60
2019-05-04T01:56:10.595Z,25.20
2019-05-04T01:56:45.902Z,20.70
2019-05-04T01:57:21.297Z,20.10
2019-05-04T01:57:56.610Z,15.70
2019-05-04T01:58:35.313Z,13.10
2019-05-04T01:59:07.965Z,24.20
2019-05-04T01:59:45.528Z,23.50
2019-05-04T02:00:19.075Z,19.20
2019-05-04T02:00:56.227Z,20.30
2019-05-04T02:01:29.671Z,29.80
2019-05-04T02:02:05.202Z,23.50
2019-05-04T02:02:40.330Z,20.30
2019-05-04T02:03:15.516Z,21.60
2019-05-04T02:03:50.764Z,30.60
2019-05-04T02:04:26.034Z,24.40
2019-05-04T02:05:01.480Z,18.80
2019-05-04T02:05:36.749Z,19.50
2019-05-04T02:06:12.178Z,20.70
2019-05-04T02:06:47.471Z,16.90
2019-05-04T02:07:22.910Z,18.40
2019-05-04T02:07:58.311Z,17.20
2019-05-04T02:08:34.967Z,18.50
2019-05-04T02:09:08.914Z,16.80
2019-05-04T02:09:44.584Z,16.50
2019-05-04T02:10:19.214Z,23.30
2019-05-04T02:10:54.959Z,22.80
2019-05-04T02:11:30.276Z,22.30
2019-05-04T02:12:05.603Z,20.70
2019-05-04T02:12:40.957Z,21.90
2019-05-04T02:13:16.481Z,18.30
2019-05-04T02:13:51.769Z,17.70
2019-05-04T02:14:27.499Z,21.60
2019-05-04T02:15:02.588Z,25.40
2019-05-04T02:15:38.346Z,22.80
2019-05-04T02:16:14.724Z,19.40
2019-05-04T02:16:48.819Z,20.50
2019-05-04T02:17:24.740Z,24.20
2019-05-04T02:17:59.657Z,26.40
2019-05-04T02:18:35.198Z,18.30
2019-05-04T02:19:10.434Z,19.40
2019-05-04T02:19:45.922Z,21.10
2019-05-04T02:20:21.247Z,20.60
2019-05-04T02:20:56.773Z,22.20
2019-05-04T02:21:32.030Z,25.90
2019-05-04T02:22:07.376Z,23.70
2019-05-04T02:22:42.749Z,27.90
2019-05-04T02:23:18.247Z,24.70
2019-05-04T02:23:54.912Z,20.10
2019-05-04T02:24:29.182Z,18.20
2019-05-04T02:25:04.822Z,20.60
2019-05-04T02:25:40.172Z,25.60
2019-05-04T02:26:15.623Z,30.20
2019-05-04T02:26:50.935Z,30.00
2019-05-04T02:27:26.155Z,23.10
2019-05-04T02:28:01.514Z,23.60
2019-05-04T02:28:36.774Z,25.60
2019-05-04T02:29:12.270Z,21.40
2019-05-04T02:29:47.922Z,14.90
2019-05-04T02:30:26.109Z,13.90
2019-05-04T02:30:58.888Z,13.50
2019-05-04T02:31:36.482Z,13.20
2019-05-04T02:32:09.779Z,12.70
2019-05-04T02:32:46.616Z,16.00
2019-05-04T02:33:20.153Z,18.40
2019-05-04T02:33:56.131Z,18.10
2019-05-04T02:34:30.880Z,16.20
2019-05-04T02:35:06.209Z,16.50
2019-05-04T02:35:41.764Z,17.50
2019-05-04T02:36:17.052Z,16.80
2019-05-04T02:36:55.864Z,18.90
2019-05-04T02:37:28.080Z,18.50
2019-05-04T02:38:12.818Z,27.30
2019-05-04T02:38:38.914Z,27.40
2019-05-04T02:39:16.062Z,18.40
2019-05-04T02:39:50.106Z,16.10
2019-05-04T02:40:26.036Z,18.30
2019-05-04T02:41:00.353Z,16.50
2019-05-04T02:41:37.465Z,15.80
2019-05-04T02:42:11.011Z,14.30
2019-05-04T02:42:46.758Z,14.50
2019-05-04T02:43:22.456Z,13.60
2019-05-04T02:43:58.154Z,15.50
2019-05-04T02:44:36.024Z,14.60
2019-05-04T02:45:09.106Z,20.50
2019-05-04T02:45:45.445Z,19.60
2019-05-04T02:46:19.838Z,17.60
2019-05-04T02:46:54.981Z,15.50
2019-05-04T02:47:30.334Z,14.70
2019-05-04T02:48:06.568Z,14.80
2019-05-04T02:48:40.964Z,17.20
2019-05-04T02:49:16.499Z,18.00
2019-05-04T02:49:51.747Z,24.30
2019-05-04T02:50:27.177Z,20.20
2019-05-04T02:51:02.389Z,17.90
2019-05-04T02:51:37.820Z,17.10
2019-05-04T02:52:15.201Z,18.30
2019-05-04T02:52:48.451Z,25.40
2019-05-04T02:53:25.902Z,21.30
2019-05-04T02:53:59.601Z,12.70
2019-05-04T02:54:36.130Z,15.50
2019-05-04T02:55:10.476Z,14.80
2019-05-04T02:55:46.040Z,14.30
2019-05-04T02:56:20.738Z,18.70
2019-05-04T02:56:56.486Z,16.90
2019-05-04T02:57:31.803Z,13.20
2019-05-04T02:58:07.291Z,12.40
2019-05-04T02:58:45.480Z,16.10
2019-05-04T02:59:17.822Z,21.20
2019-05-04T02:59:56.183Z,19.90
2019-05-04T03:00:28.176Z,22.80
2019-05-04T03:01:04.896Z,31.60
2019-05-04T03:01:38.741Z,23.70
2019-05-04T03:02:16.044Z,23.80
2019-05-04T03:02:49.780Z,21.60
2019-05-04T03:03:25.194Z,21.50
2019-05-04T03:04:00.336Z,23.40
2019-05-04T03:04:36.256Z,22.60
2019-05-04T03:05:11.010Z,25.90
2019-05-04T03:05:46.510Z,28.20
2019-05-04T03:06:21.736Z,26.30
2019-05-04T03:06:56.948Z,22.70
2019-05-04T03:07:35.208Z,26.30
2019-05-04T03:08:23.950Z,23.60
2019-05-04T03:08:45.861Z,24.60
2019-05-04T03:09:17.887Z,25.00
2019-05-04T03:09:55.560Z,25.20
2019-05-04T03:10:28.953Z,29.10
2019-05-04T03:11:05.895Z,25.90
2019-05-04T03:11:40.110Z,21.60
2019-05-04T03:12:16.185Z,18.50
2019-05-04T03:12:50.991Z,27.80
2019-05-04T03:13:26.313Z,25.40
2019-05-04T03:14:05.148Z,29.80
2019-05-04T03:14:37.595Z,28.50
2019-05-04T03:15:15.537Z,20.60
2019-05-04T03:15:48.117Z,26.90
2019-05-04T03:16:37.851Z,30.60
2019-05-04T03:16:58.671Z,30.60
2019-05-04T03:17:35.466Z,29.10
2019-05-04T03:18:09.222Z,25.50
2019-05-04T03:18:45.821Z,16.50
2019-05-04T03:19:19.869Z,15.40
2019-05-04T03:19:57.159Z,22.10
2019-05-04T03:20:30.409Z,21.30
2019-05-04T03:21:06.029Z,22.20
2019-05-04T03:21:40.771Z,20.20
2019-05-04T03:22:15.980Z,19.70
2019-05-04T03:22:51.425Z,23.10
2019-05-04T03:23:26.855Z,21.80
2019-05-04T03:24:02.483Z,22.50
2019-05-04T03:24:37.926Z,20.20
2019-05-04T03:25:15.668Z,18.70
2019-05-04T03:25:48.876Z,20.70
2019-05-04T03:26:26.347Z,18.20
2019-05-04T03:26:59.469Z,17.40
2019-05-04T03:27:35.670Z,16.00
2019-05-04T03:28:10.398Z,17.50
2019-05-04T03:28:46.218Z,19.20
2019-05-04T03:29:20.790Z,22.30
2019-05-04T03:29:56.374Z,22.80
2019-05-04T03:30:31.708Z,23.00
2019-05-04T03:31:08.733Z,24.90
2019-05-04T03:31:42.215Z,23.20
2019-05-04T03:32:19.159Z,13.70
2019-05-04T03:32:57.442Z,16.10
2019-05-04T03:33:29.147Z,42.80
2019-05-04T03:34:07.693Z,25.80
2019-05-04T03:34:54.194Z,19.60
2019-05-04T03:35:27.295Z,14.60
2019-05-04T03:35:58.640Z,15.80
2019-05-04T03:36:31.906Z,18.40
2019-05-04T03:37:00.019Z,18.90
2019-05-04T03:37:35.656Z,17.10
2019-05-04T03:38:10.648Z,15.10
2019-05-04T03:38:53.399Z,10.90
2019-05-04T03:39:21.424Z,13.50
2019-05-04T03:39:57.037Z,19.00
2019-05-04T03:40:32.083Z,18.90
2019-05-04T03:41:07.320Z,19.70
2019-05-04T03:41:44.945Z,15.50
2019-05-04T03:42:18.062Z,17.30
2019-05-04T03:42:55.389Z,27.90
2019-05-04T03:43:28.699Z,25.90
2019-05-04T03:44:06.002Z,21.70
2019-05-04T03:44:39.296Z,18.60
2019-05-04T03:45:16.354Z,19.20
2019-05-04T03:45:50.059Z,23.40
2019-05-04T03:46:26.294Z,32.40
2019-05-04T03:47:01.231Z,20.10
2019-05-04T03:47:36.281Z,17.80
2019-05-04T03:48:11.614Z,18.80
2019-05-04T03:48:46.876Z,20.20
2019-05-04T03:49:22.237Z,26.40
2019-05-04T03:49:57.593Z,24.20
2019-05-04T03:50:35.373Z,24.10
2019-05-04T03:51:08.210Z,23.30
2019-05-04T03:51:46.313Z,15.90
2019-05-04T03:52:18.759Z,15.30
2019-05-04T03:52:55.764Z,19.10
2019-05-04T03:53:29.538Z,22.40
2019-05-04T03:54:05.883Z,21.30
2019-05-04T03:54:40.692Z,21.80
2019-05-04T03:55:16.336Z,19.90
2019-05-04T03:55:51.280Z,16.90
2019-05-04T03:56:26.596Z,20.40
2019-05-04T03:57:04.729Z,24.60
2019-05-04T03:57:37.171Z,22.00
2019-05-04T03:58:15.288Z,21.20
2019-05-04T03:58:47.876Z,22.30
2019-05-04T03:59:25.277Z,20.90
2019-05-04T03:59:58.566Z,20.60
2019-05-04T04:00:36.195Z,25.40
2019-05-04T04:01:09.415Z,20.10
2019-05-04T04:01:44.951Z,23.00
2019-05-04T04:02:19.867Z,19.50
2019-05-04T04:02:56.049Z,16.40
2019-05-04T04:03:30.928Z,21.80
2019-05-04T04:04:06.246Z,28.20
2019-05-04T04:04:41.590Z,22.90
2019-05-04T04:05:17.182Z,22.00
2019-05-04T04:05:52.554Z,23.60
2019-05-04T04:06:28.194Z,21.40
2019-05-04T04:07:05.207Z,15.40
2019-05-04T04:07:38.563Z,18.60
2019-05-04T04:08:15.852Z,19.20
2019-05-04T04:09:04.493Z,14.40
2019-05-04T04:09:25.678Z,18.00
2019-05-04T04:10:00.151Z,22.30
2019-05-04T04:10:36.183Z,17.00
2019-05-04T04:11:11.177Z,18.10
2019-05-04T04:11:46.718Z,26.00
2019-05-04T04:12:22.152Z,23.00
2019-05-04T04:12:57.673Z,16.20
2019-05-04T04:13:35.879Z,13.40
2019-05-04T04:14:08.715Z,14.50
2019-05-04T04:14:44.979Z,16.80
2019-05-04T04:15:19.073Z,16.50
2019-05-04T04:15:56.069Z,19.00
2019-05-04T04:16:29.436Z,18.00
2019-05-04T04:17:06.221Z,19.40
2019-05-04T04:17:40.186Z,22.80
2019-05-04T04:18:15.546Z,18.20
2019-05-04T04:18:51.433Z,19.00
2019-05-04T04:19:26.600Z,22.20
2019-05-04T04:20:01.750Z,16.60
2019-05-04T04:20:37.186Z,17.00
2019-05-04T04:21:15.248Z,16.50
2019-05-04T04:21:48.322Z,17.00
2019-05-04T04:22:25.774Z,20.80
2019-05-04T04:22:58.928Z,16.60
2019-05-04T04:23:35.781Z,13.20
2019-05-04T04:24:09.381Z,17.10
2019-05-04T04:24:46.069Z,19.70
2019-05-04T04:25:20.374Z,15.60
2019-05-04T04:25:55.544Z,25.50
2019-05-04T04:26:31.121Z,21.10
2019-05-04T04:27:06.364Z,20.60
2019-05-04T04:27:41.404Z,20.90
2019-05-04T04:28:21.638Z,16.80
2019-05-04T04:28:51.835Z,14.20
2019-05-04T04:29:27.037Z,16.30
2019-05-04T04:30:05.104Z,21.50
2019-05-04T04:30:38.497Z,23.70
2019-05-04T04:31:15.561Z,19.70
2019-05-04T04:31:49.104Z,16.70
2019-05-04T04:32:25.678Z,25.80
2019-05-04T04:32:59.810Z,25.00
2019-05-04T04:33:51.412Z,19.90
2019-05-04T04:34:10.771Z,21.40
2019-05-04T04:34:46.496Z,16.10
2019-05-04T04:35:21.878Z,16.50
2019-05-04T04:35:57.101Z,21.50
2019-05-04T04:36:35.781Z,17.60
2019-05-04T04:37:08.031Z,19.60
2019-05-04T04:37:45.977Z,19.70
2019-05-04T04:38:18.600Z,19.80
2019-05-04T04:38:56.200Z,18.10
2019-05-04T04:39:34.840Z,13.90
2019-05-04T04:40:05.446Z,32.00
2019-05-04T04:40:39.837Z,26.30
2019-05-04T04:41:16.258Z,22.30
2019-05-04T04:41:50.367Z,17.80
2019-05-04T04:42:25.674Z,14.60
2019-05-04T04:43:00.908Z,18.40
2019-05-04T04:43:36.651Z,19.70
2019-05-04T04:44:12.051Z,19.40
2019-05-04T04:44:47.414Z,21.70
2019-05-04T04:45:25.366Z,21.00
2019-05-04T04:45:58.277Z,22.80
2019-05-04T04:46:35.574Z,23.30
2019-05-04T04:47:09.227Z,21.00
2019-05-04T04:47:46.699Z,19.00
2019-05-04T04:48:25.625Z,25.90
2019-05-04T04:48:55.806Z,26.90
2019-05-04T04:49:30.772Z,25.40
2019-05-04T04:50:06.466Z,18.50
2019-05-04T04:50:41.730Z,15.00
2019-05-04T04:51:17.137Z,31.90
2019-05-04T04:51:52.369Z,25.20
2019-05-04T04:52:27.692Z,20.50
2019-05-04T04:53:06.506Z,20.60
2019-05-04T04:53:38.367Z,25.90
2019-05-04T04:54:15.707Z,22.00
2019-05-04T04:54:50.842Z,22.60
2019-05-04T04:55:28.290Z,20.90
2019-05-04T04:55:59.478Z,15.30
2019-05-04T04:56:35.233Z,16.40
2019-05-04T04:57:10.151Z,16.90
2019-05-04T04:57:46.832Z,20.30
2019-05-04T04:58:21.016Z,23.30
2019-05-04T04:58:56.536Z,18.30
2019-05-04T04:59:31.786Z,15.90
2019-05-04T05:00:07.360Z,16.70
2019-05-04T05:00:45.153Z,20.10
2019-05-04T05:01:18.124Z,26.80
2019-05-04T05:01:55.104Z,25.80
2019-05-04T05:02:41.983Z,20.00
2019-05-04T05:03:05.510Z,20.10
2019-05-04T05:03:39.658Z,24.30
2019-05-04T05:04:15.117Z,22.10
2019-05-04T05:04:50.396Z,21.90
2019-05-04T05:05:25.820Z,23.00
2019-05-04T05:06:01.068Z,22.70
2019-05-04T05:06:36.566Z,21.70
2019-05-04T05:07:11.744Z,19.40
2019-05-04T05:07:47.110Z,17.40
2019-05-04T05:08:24.803Z,16.40
2019-05-04T05:08:58.278Z,18.40
2019-05-04T05:09:42.557Z,18.00
2019-05-04T05:10:09.039Z,22.30
2019-05-04T05:10:45.495Z,20.00
2019-05-04T05:11:19.701Z,17.40
2019-05-04T05:11:56.942Z,18.30
2019-05-04T05:12:30.619Z,23.50
2019-05-04T05:13:06.222Z,27.90
2019-05-04T05:13:41.751Z,24.80
2019-05-04T05:14:17.292Z,21.20
2019-05-04T05:14:52.678Z,24.30
2019-05-04T05:15:28.285Z,29.20
2019-05-04T05:16:04.412Z,22.10
2019-05-04T05:16:38.990Z,17.20
2019-05-04T05:17:14.950Z,19.60
2019-05-04T05:17:49.953Z,24.50
2019-05-04T05:18:25.489Z,20.40
2019-05-04T05:19:00.894Z,16.60
2019-05-04T05:19:36.226Z,17.40
2019-05-04T05:20:11.750Z,17.70
2019-05-04T05:20:46.999Z,18.40
2019-05-04T05:21:22.423Z,23.10
2019-05-04T05:21:57.957Z,21.50
2019-05-04T05:22:35.022Z,18.20
2019-05-04T05:23:08.631Z,17.40
2019-05-04T05:23:45.313Z,16.40
2019-05-04T05:24:19.451Z,29.00
2019-05-04T05:24:55.102Z,23.10
2019-05-04T05:25:30.504Z,28.30
2019-05-04T05:26:05.818Z,22.60
2019-05-04T05:26:41.313Z,20.90
2019-05-04T05:27:16.631Z,24.30
2019-05-04T05:27:54.191Z,15.90
2019-05-04T05:28:27.353Z,14.20
2019-05-04T05:29:04.477Z,16.10
2019-05-04T05:29:38.119Z,17.50
2019-05-04T05:30:14.941Z,24.40
2019-05-04T05:30:49.140Z,20.20
2019-05-04T05:31:24.374Z,13.00
2019-05-04T05:31:59.720Z,12.30
2019-05-04T05:32:34.937Z,14.20
2019-05-04T05:33:10.350Z,16.00
2019-05-04T05:33:47.650Z,23.00
2019-05-04T05:34:20.981Z,21.50
2019-05-04T05:34:56.215Z,15.40
2019-05-04T05:35:31.410Z,22.30
2019-05-04T05:36:06.836Z,23.70
2019-05-04T05:36:42.130Z,18.70
2019-05-04T05:37:17.475Z,23.60
2019-05-04T05:37:52.676Z,16.10
2019-05-04T05:38:28.104Z,25.10
2019-05-04T05:39:04.436Z,22.90
2019-05-04T05:39:38.820Z,19.80
2019-05-04T05:40:15.277Z,14.30
2019-05-04T05:40:49.331Z,11.40
2019-05-04T05:41:24.948Z,16.20
2019-05-04T05:42:00.474Z,17.90
2019-05-04T05:42:39.354Z,17.70
2019-05-04T05:43:14.971Z,14.10
2019-05-04T05:43:49.218Z,19.80
2019-05-04T05:44:22.151Z,17.50
2019-05-04T05:44:57.658Z,11.10
2019-05-04T05:45:34.631Z,10.10
2019-05-04T05:46:08.715Z,14.80
2019-05-04T05:46:45.172Z,16.90
2019-05-04T05:47:19.567Z,17.80
2019-05-04T05:47:58.226Z,23.40
2019-05-04T05:48:34.801Z,27.30
2019-05-04T05:49:09.621Z,19.30
2019-05-04T05:49:40.910Z,21.50
2019-05-04T05:50:16.241Z,22.30
2019-05-04T05:50:51.325Z,18.70
2019-05-04T05:51:26.851Z,16.00
2019-05-04T05:52:02.154Z,14.40
2019-05-04T05:52:40.758Z,19.20
2019-05-04T05:53:17.550Z,23.10
2019-05-04T05:53:49.810Z,21.10
2019-05-04T05:54:24.629Z,13.60
2019-05-04T05:54:58.861Z,12.70
2019-05-04T05:55:34.866Z,15.50
2019-05-04T05:56:09.702Z,8.70
2019-05-04T05:56:45.295Z,10.90
2019-05-04T05:57:20.844Z,13.60
2019-05-04T05:57:59.407Z,10.90
2019-05-04T05:58:39.208Z,10.20
2019-05-04T05:59:10.864Z,11.70
2019-05-04T05:59:44.837Z,10.30
2019-05-04T06:00:18.090Z,11.20
2019-05-04T06:00:54.958Z,13.80
2019-05-04T06:01:29.572Z,12.60
2019-05-04T06:02:06.347Z,11.60
2019-05-04T06:02:40.858Z,11.40
2019-05-04T06:03:14.847Z,13.80
2019-05-04T06:03:49.905Z,11.00
2019-05-04T06:04:25.128Z,13.60
2019-05-04T06:05:00.414Z,11.00
2019-05-04T06:05:35.845Z,7.60
2019-05-04T06:06:11.577Z,10.30
2019-05-04T06:06:50.620Z,9.90
2019-05-04T06:07:27.690Z,9.20
2019-05-04T06:07:59.857Z,9.00
2019-05-04T06:08:34.375Z,8.40
2019-05-04T06:09:07.978Z,11.70
2019-05-04T06:09:44.976Z,11.20
2019-05-04T06:10:26.755Z,10.10
2019-05-04T06:10:54.492Z,8.20
2019-05-04T06:11:29.487Z,10.60
2019-05-04T06:12:06.206Z,10.80
2019-05-04T06:12:40.228Z,12.30
2019-05-04T06:13:15.652Z,11.90
2019-05-04T06:13:50.933Z,8.70
2019-05-04T06:14:26.348Z,7.30
2019-05-04T06:15:01.686Z,10.00
2019-05-04T06:15:38.497Z,11.00
2019-05-04T06:16:14.955Z,10.40
2019-05-04T06:16:49.398Z,11.80
2019-05-04T06:17:24.408Z,8.40
2019-05-04T06:17:58.316Z,8.20
2019-05-04T06:18:34.496Z,10.00
2019-05-04T06:19:09.160Z,9.10
2019-05-04T06:19:44.777Z,6.30
2019-05-04T06:20:20.115Z,6.50
2019-05-04T06:20:58.455Z,8.50
2019-05-04T06:21:35.170Z,8.00
2019-05-04T06:22:09.854Z,8.50
2019-05-04T06:22:41.735Z,6.00
2019-05-04T06:23:17.059Z,8.00
2019-05-04T06:23:54.172Z,8.90
2019-05-04T06:24:27.903Z,11.50
2019-05-04T06:25:07.051Z,9.40
2019-05-04T06:25:44.423Z,8.00
2019-05-04T06:26:20.184Z,7.70
2019-05-04T06:26:50.075Z,7.10
2019-05-04T06:27:25.452Z,8.90
2019-05-04T06:28:00.787Z,10.80
2019-05-04T06:28:36.295Z,11.60
2019-05-04T06:29:11.565Z,10.70
2019-05-04T06:29:48.318Z,13.90
2019-05-04T06:30:26.457Z,10.30
2019-05-04T06:30:59.127Z,5.20
2019-05-04T06:31:34.417Z,9.90
2019-05-04T06:32:09.607Z,9.00
2019-05-04T06:32:44.934Z,9.80
2019-05-04T06:33:20.328Z,9.50
2019-05-04T06:33:55.858Z,7.50
2019-05-04T06:34:32.450Z,8.50
2019-05-04T06:35:06.508Z,6.50
2019-05-04T06:35:41.933Z,6.80
2019-05-04T06:36:17.490Z,9.20
2019-05-04T06:36:55.043Z,11.10
2019-05-04T06:37:28.795Z,7.70
2019-05-04T06:38:08.408Z,5.60
2019-05-04T06:38:40.885Z,7.10
2019-05-04T06:39:14.870Z,9.30
2019-05-04T06:39:49.358Z,7.70
2019-05-04T06:40:36.021Z,6.80
2019-05-04T06:40:59.968Z,8.20
2019-05-04T06:41:36.912Z,7.80
2019-05-04T06:42:14.866Z,9.00
2019-05-04T06:42:49.528Z,7.80
2019-05-04T06:43:20.815Z,6.90
2019-05-04T06:44:02.034Z,6.70
2019-05-04T06:44:31.604Z,7.60
2019-05-04T06:45:14.153Z,5.30
2019-05-04T06:45:42.218Z,4.80
2019-05-04T06:46:17.605Z,7.00
2019-05-04T06:46:52.933Z,11.70
2019-05-04T06:47:28.217Z,10.50
2019-05-04T06:48:05.322Z,6.40
2019-05-04T06:48:39.445Z,6.80
2019-05-04T06:49:14.791Z,10.40
2019-05-04T06:49:50.679Z,11.60
2019-05-04T06:50:26.011Z,8.20
2019-05-04T06:51:04.541Z,7.10
2019-05-04T06:51:39.384Z,8.50
2019-05-04T06:52:11.167Z,10.10
2019-05-04T06:52:46.382Z,11.00
2019-05-04T06:53:30.966Z,9.00
2019-05-04T06:53:56.802Z,6.00
2019-05-04T06:54:32.340Z,8.20
2019-05-04T06:55:14.879Z,12.40
2019-05-04T06:55:44.473Z,11.30
2019-05-04T06:56:23.741Z,8.10
2019-05-04T06:56:54.494Z,7.90
2019-05-04T06:57:40.733Z,8.60
2019-05-04T06:58:07.022Z,10.30
2019-05-04T06:58:41.920Z,9.90
2019-05-04T06:59:20.877Z,7.70
2019-05-04T06:59:51.935Z,6.40
2019-05-04T07:00:25.688Z,7.70
2019-05-04T07:01:01.167Z,8.30
2019-05-04T07:01:36.372Z,7.00
2019-05-04T07:02:11.779Z,8.80
2019-05-04T07:02:46.880Z,8.80
2019-05-04T07:03:24.105Z,11.40
2019-05-04T07:03:59.052Z,11.00
2019-05-04T07:04:35.631Z,7.30
2019-05-04T07:05:11.444Z,7.50
2019-05-04T07:05:44.423Z,7.30
2019-05-04T07:06:19.219Z,8.10
2019-05-04T07:06:55.109Z,7.90
2019-05-04T07:07:30.450Z,6.70
2019-05-04T07:08:09.093Z,9.70
2019-05-04T07:08:48.019Z,10.00
2019-05-04T07:09:19.640Z,12.50
2019-05-04T07:09:51.659Z,11.00
2019-05-04T07:10:27.092Z,8.70
2019-05-04T07:11:21.239Z,9.60
2019-05-04T07:12:01.618Z,8.10
2019-05-04T07:12:15.186Z,7.20
2019-05-04T07:12:48.623Z,9.20
2019-05-04T07:13:28.056Z,11.20
2019-05-04T07:13:59.748Z,9.00
2019-05-04T07:14:39.108Z,7.00
2019-05-04T07:15:14.586Z,23.50
2019-05-04T07:15:49.547Z,17.60
2019-05-04T07:16:20.846Z,15.20
2019-05-04T07:16:56.610Z,11.90
2019-05-04T07:17:31.944Z,10.60
2019-05-04T07:18:07.543Z,7.50
2019-05-04T07:18:44.446Z,8.30
2019-05-04T07:19:22.325Z,10.60
2019-05-04T07:20:00.337Z,13.40
2019-05-04T07:20:32.092Z,13.40
2019-05-04T07:21:04.990Z,12.10
2019-05-04T07:21:39.670Z,12.20
2019-05-04T07:22:15.116Z,33.90
2019-05-04T07:22:50.301Z,21.50
2019-05-04T07:23:25.931Z,12.50
2019-05-04T07:24:01.336Z,7.80
2019-05-04T07:24:38.175Z,9.40
2019-05-04T07:25:15.625Z,19.70
2019-05-04T07:25:54.883Z,18.70
2019-05-04T07:26:24.833Z,34.50
2019-05-04T07:26:58.398Z,29.30
2019-05-04T07:27:35.198Z,32.40
2019-05-04T07:28:09.127Z,29.40
2019-05-04T07:28:44.781Z,27.10
2019-05-04T07:29:20.062Z,21.20
2019-05-04T07:29:58.315Z,27.90
2019-05-04T07:30:31.042Z,35.20
2019-05-04T07:31:10.201Z,24.60
2019-05-04T07:31:41.193Z,53.20
2019-05-04T07:32:16.494Z,48.90
2019-05-04T07:32:51.715Z,66.20
2019-05-04T07:33:26.903Z,60.00
2019-05-04T07:34:04.520Z,46.70
2019-05-04T07:34:41.326Z,29.40
2019-05-04T07:35:16.812Z,39.70
2019-05-04T07:35:48.494Z,35.40
2019-05-04T07:36:24.739Z,33.10
2019-05-04T07:36:59.568Z,64.30
2019-05-04T07:37:45.754Z,61.50